^^
Your Local Weather - Clay, NY Station Historical Data
Daily Summary for January 2, 2018 Units:  English    Metric   Both
« Previous Day
Next Day »
Daily Weekly Monthly Yearly Custom
  High: Low: Average:
Temperature: 21.8 °F 2.3 °F 13.3 °F
Dew Point: 15.0 °F -1.4 °F 6.9 °F
Humidity: 87% 61% 76%
Wind Speed: 9.0mph 0.0mph 3.3mph
Wind Gust: 19.0mph - -
Wind- - WSW
Pressure: 30.35 in 30.17 in -
Precipitation: 0.00 in    
Historical Graphs
 
 
Tabular Data for January 2, 2018
Time Temperature Dew Point Pressure Wind Wind Speed Wind Gust Humidity Rainfall Rate (Hourly) solar
00:00 7.8 °F 4.0 °F 30.33 in WNW 3.0 mph 5.0 mph 84% 0.00 in 0 W/m2
00:04 7.8 °F 4.2 °F 30.33 in NW 2.0 mph 5.0 mph 85% 0.00 in 0 W/m2
00:10 7.7 °F 4.1 °F 30.33 in NW 2.0 mph 2.0 mph 85% 0.00 in 0 W/m2
00:16 7.6 °F 4.0 °F 30.33 in NW 2.0 mph 5.0 mph 85% 0.00 in 0 W/m2
00:28 7.3 °F 3.7 °F 30.33 in WNW 4.0 mph 5.0 mph 85% 0.00 in 0 W/m2
00:34 7.2 °F 3.6 °F 30.33 in NW 3.0 mph 4.0 mph 85% 0.00 in 0 W/m2
00:40 7.1 °F 3.5 °F 30.33 in WNW 3.0 mph 6.0 mph 85% 0.00 in 0 W/m2
00:46 7.0 °F 3.2 °F 30.33 in WNW 3.0 mph 6.0 mph 84% 0.00 in 0 W/m2
00:52 6.8 °F 3.0 °F 30.33 in WNW 2.0 mph 3.0 mph 84% 0.00 in 0 W/m2
00:58 6.7 °F 2.9 °F 30.33 in NW 2.0 mph 3.0 mph 84% 0.00 in 0 W/m2
01:04 6.7 °F 2.6 °F 30.34 in NW 3.0 mph 3.0 mph 83% 0.00 in 0 W/m2
01:06 6.7 °F 2.6 °F 30.34 in NW 3.0 mph 3.0 mph 83% 0.00 in 0 W/m2
01:12 6.6 °F 2.5 °F 30.34 in NW 2.0 mph 2.0 mph 83% 0.00 in 0 W/m2
01:18 6.5 °F 2.4 °F 30.34 in NW 2.0 mph 2.0 mph 83% 0.00 in 0 W/m2
01:24 6.5 °F 2.4 °F 30.34 in NW 1.0 mph 3.0 mph 83% 0.00 in 0 W/m2
01:30 6.3 °F 2.2 °F 30.34 in NW 2.0 mph 2.0 mph 83% 0.00 in 0 W/m2
01:36 6.2 °F 2.1 °F 30.34 in NNW 2.0 mph 3.0 mph 83% 0.00 in 0 W/m2
01:42 6.1 °F 2.0 °F 30.35 in NNW 1.0 mph 3.0 mph 83% 0.00 in 0 W/m2
01:48 6.1 °F 2.0 °F 30.35 in NW 1.0 mph 4.0 mph 83% 0.00 in 0 W/m2
01:52 6.1 °F 2.0 °F 30.35 in NW 1.0 mph 1.0 mph 83% 0.00 in 0 W/m2
02:04 5.9 °F 1.8 °F 30.35 in Calm   1.0 mph 83% 0.00 in 0 W/m2
02:10 5.9 °F 2.1 °F 30.35 in Calm     84% 0.00 in 0 W/m2
02:16 5.9 °F 2.1 °F 30.35 in Calm     84% 0.00 in 0 W/m2
02:18 6.0 °F 2.2 °F 30.35 in Calm     84% 0.00 in 0 W/m2
02:24 6.0 °F 2.2 °F 30.35 in Calm     84% 0.00 in 0 W/m2
02:30 6.0 °F 2.2 °F 30.35 in Calm     84% 0.00 in 0 W/m2
02:36 5.9 °F 2.1 °F 30.35 in Calm     84% 0.00 in 0 W/m2
02:42 5.8 °F 2.0 °F 30.35 in Calm     84% 0.00 in 0 W/m2
02:48 5.6 °F 1.8 °F 30.35 in Calm     84% 0.00 in 0 W/m2
02:54 5.5 °F 1.7 °F 30.35 in Calm     84% 0.00 in 0 W/m2
03:00 5.4 °F 1.6 °F 30.35 in Calm     84% 0.00 in 0 W/m2
03:12 5.1 °F 1.3 °F 30.35 in Calm     84% 0.00 in 0 W/m2
03:18 4.8 °F 1.0 °F 30.35 in Calm     84% 0.00 in 0 W/m2
03:24 4.7 °F 0.9 °F 30.35 in Calm     84% 0.00 in 0 W/m2
03:30 4.8 °F 1.3 °F 30.35 in Calm     85% 0.00 in 0 W/m2
03:36 5.1 °F 1.6 °F 30.35 in Calm     85% 0.00 in 0 W/m2
03:42 5.4 °F 1.9 °F 30.35 in Calm     85% 0.00 in 0 W/m2
03:44 5.5 °F 2.0 °F 30.35 in Calm     85% 0.00 in 0 W/m2
03:50 5.7 °F 2.2 °F 30.35 in Calm   1.0 mph 85% 0.00 in 0 W/m2
03:56 6.0 °F 2.5 °F 30.35 in Calm   1.0 mph 85% 0.00 in 0 W/m2
04:02 6.1 °F 2.6 °F 30.35 in Calm     85% 0.00 in 0 W/m2
04:08 6.2 °F 2.4 °F 30.35 in Calm   1.0 mph 84% 0.00 in 0 W/m2
04:14 6.3 °F 2.5 °F 30.35 in Calm   2.0 mph 84% 0.00 in 0 W/m2
04:20 6.4 °F 2.6 °F 30.35 in Calm     84% 0.00 in 0 W/m2
04:26 6.4 °F 2.6 °F 30.35 in Calm   1.0 mph 84% 0.00 in 0 W/m2
04:32 6.5 °F 3.0 °F 30.35 in NW 1.0 mph 1.0 mph 85% 0.00 in 0 W/m2
04:38 6.6 °F 3.0 °F 30.35 in Calm   1.0 mph 85% 0.00 in 0 W/m2
04:44 6.6 °F 3.0 °F 30.35 in Calm   2.0 mph 85% 0.00 in 0 W/m2
04:50 6.6 °F 3.0 °F 30.35 in Calm     85% 0.00 in 0 W/m2
05:02 6.7 °F 3.1 °F 30.34 in Calm     85% 0.00 in 0 W/m2
05:08 6.7 °F 3.1 °F 30.34 in Calm     85% 0.00 in 0 W/m2
05:14 6.8 °F 3.2 °F 30.34 in Calm     85% 0.00 in 0 W/m2
05:20 6.8 °F 3.2 °F 30.34 in Calm     85% 0.00 in 0 W/m2
05:26 6.9 °F 3.3 °F 30.34 in Calm     85% 0.00 in 0 W/m2
05:32 6.9 °F 3.3 °F 30.34 in Calm   1.0 mph 85% 0.00 in 0 W/m2
05:44 7.1 °F 3.5 °F 30.33 in Calm     85% 0.00 in 0 W/m2
05:50 7.2 °F 3.6 °F 30.33 in Calm     85% 0.00 in 0 W/m2
05:56 7.1 °F 3.5 °F 30.33 in Calm     85% 0.00 in 0 W/m2
06:02 7.2 °F 3.6 °F 30.33 in Calm   1.0 mph 85% 0.00 in 0 W/m2
06:08 7.2 °F 3.6 °F 30.33 in Calm   1.0 mph 85% 0.00 in 0 W/m2
06:16 7.3 °F 3.7 °F 30.34 in NW 1.0 mph 2.0 mph 85% 0.00 in 0 W/m2
06:22 7.3 °F 3.7 °F 30.34 in NW 1.0 mph 1.0 mph 85% 0.00 in 0 W/m2
06:26 7.2 °F 3.6 °F 30.33 in Calm   1.0 mph 85% 0.00 in 0 W/m2
06:28 7.2 °F 3.6 °F 30.34 in Calm   1.0 mph 85% 0.00 in 0 W/m2
06:34 7.1 °F 3.5 °F 30.34 in Calm   2.0 mph 85% 0.00 in 0 W/m2
06:42 7.0 °F 3.4 °F 30.34 in Calm     85% 0.00 in 0 W/m2
06:48 6.9 °F 3.3 °F 30.33 in Calm     85% 0.00 in 0 W/m2
06:54 6.6 °F 3.0 °F 30.33 in Calm     85% 0.00 in 0 W/m2
07:00 6.1 °F 2.6 °F 30.33 in Calm     85% 0.00 in 0 W/m2
07:06 5.6 °F 2.1 °F 30.34 in Calm     85% 0.00 in 0 W/m2
07:12 5.0 °F 1.5 °F 30.34 in Calm     85% 0.00 in 0 W/m2
07:18 4.4 °F 0.9 °F 30.33 in Calm     85% 0.00 in 0 W/m2
07:30 3.1 °F -0.6 °F 30.33 in Calm     84% 0.00 in 0 W/m2
07:36 2.6 °F -1.1 °F 30.33 in Calm     84% 0.00 in 0 W/m2
07:42 2.3 °F -1.4 °F 30.33 in Calm     84% 0.00 in 0 W/m2
07:48 2.3 °F -1.2 °F 30.33 in Calm     85% 0.00 in 0 W/m2
07:54 2.3 °F -1.2 °F 30.33 in Calm     85% 0.00 in 5 W/m2
08:00 2.9 °F -0.6 °F 30.33 in Calm     85% 0.00 in 7 W/m2
08:06 2.9 °F -0.6 °F 30.33 in Calm     85% 0.00 in 11 W/m2
08:12 3.3 °F -0.2 °F 30.33 in Calm     85% 0.00 in 12 W/m2
08:24 4.6 °F 1.3 °F 30.33 in Calm     86% 0.00 in 11 W/m2
08:30 5.4 °F 2.1 °F 30.32 in Calm     86% 0.00 in 14 W/m2
08:38 6.4 °F 3.1 °F 30.32 in Calm     86% 0.00 in 19 W/m2
08:44 7.1 °F 4.0 °F 30.32 in Calm     87% 0.00 in 28 W/m2
08:50 8.0 °F 4.9 °F 30.31 in Calm     87% 0.00 in 32 W/m2
09:02 9.5 °F 6.4 °F 30.31 in Calm     87% 0.00 in 23 W/m2
09:08 9.8 °F 6.5 °F 30.30 in Calm   2.0 mph 86% 0.00 in 19 W/m2
09:14 10.0 °F 6.6 °F 30.30 in WSW 1.0 mph 3.0 mph 86% 0.00 in 16 W/m2
09:20 10.3 °F 6.9 °F 30.30 in WSW 1.0 mph 1.0 mph 86% 0.00 in 18 W/m2
09:28 10.8 °F 7.4 °F 30.30 in WSW 1.0 mph 2.0 mph 86% 0.00 in 19 W/m2
09:34 11.1 °F 7.7 °F 30.30 in WSW 1.0 mph 1.0 mph 86% 0.00 in 19 W/m2
09:36 11.2 °F 7.8 °F 30.30 in South 1.0 mph 3.0 mph 86% 0.00 in 21 W/m2
09:42 11.4 °F 8.0 °F 30.30 in SE 1.0 mph 3.0 mph 86% 0.00 in 18 W/m2
09:48 11.6 °F 8.2 °F 30.29 in SE 1.0 mph 3.0 mph 86% 0.00 in 18 W/m2
09:54 12.0 °F 8.6 °F 30.29 in Calm   2.0 mph 86% 0.00 in 19 W/m2
10:00 12.2 °F 8.8 °F 30.28 in SE 1.0 mph 1.0 mph 86% 0.00 in 33 W/m2
10:04 12.5 °F 9.1 °F 30.29 in SE 1.0 mph 1.0 mph 86% 0.00 in 40 W/m2
10:10 13.2 °F 9.8 °F 30.28 in Calm   1.0 mph 86% 0.00 in 44 W/m2
10:16 13.8 °F 10.4 °F 30.28 in SE 1.0 mph 1.0 mph 86% 0.00 in 44 W/m2
10:22 14.5 °F 11.1 °F 30.28 in Calm   2.0 mph 86% 0.00 in 37 W/m2
10:28 15.3 °F 11.9 °F 30.28 in Calm   3.0 mph 86% 0.00 in 32 W/m2
10:34 16.0 °F 12.6 °F 30.27 in WSW 1.0 mph 3.0 mph 86% 0.00 in 37 W/m2
10:40 17.0 °F 13.5 °F 30.26 in WSW 2.0 mph 2.0 mph 86% 0.00 in 44 W/m2
10:46 17.7 °F 14.2 °F 30.26 in SW 3.0 mph 4.0 mph 86% 0.00 in 39 W/m2
10:52 18.1 °F 14.4 °F 30.26 in West 3.0 mph 3.0 mph 85% 0.00 in 44 W/m2
10:58 18.4 °F 14.4 °F 30.26 in SW 3.0 mph 4.0 mph 84% 0.00 in 46 W/m2
11:04 18.7 °F 14.4 °F 30.25 in West 4.0 mph 8.0 mph 83% 0.00 in 46 W/m2
11:10 18.9 °F 14.3 °F 30.25 in WSW 5.0 mph 5.0 mph 82% 0.00 in 46 W/m2
11:16 19.2 °F 14.6 °F 30.25 in SW 5.0 mph 7.0 mph 82% 0.00 in 49 W/m2
11:22 19.4 °F 14.5 °F 30.25 in West 5.0 mph 8.0 mph 81% 0.00 in 42 W/m2
11:34 19.8 °F 14.9 °F 30.24 in SSW 4.0 mph 5.0 mph 81% 0.00 in 35 W/m2
11:40 19.9 °F 15.0 °F 30.24 in SW 4.0 mph 5.0 mph 81% 0.00 in 51 W/m2
11:52 20.4 °F 14.9 °F 30.23 in SW 4.0 mph 7.0 mph 79% 0.00 in 63 W/m2
11:58 20.5 °F 14.7 °F 30.23 in SW 5.0 mph 7.0 mph 78% 0.00 in 84 W/m2
12:04 20.6 °F 14.8 °F 30.23 in SW 5.0 mph 7.0 mph 78% 0.00 in 74 W/m2
12:10 20.4 °F 14.3 °F 30.22 in West 5.0 mph 7.0 mph 77% 0.00 in 74 W/m2
12:14 20.4 °F 14.0 °F 30.22 in WSW 5.0 mph 7.0 mph 76% 0.00 in 72 W/m2
12:20 20.8 °F 14.4 °F 30.21 in West 5.0 mph 5.0 mph 76% 0.00 in 81 W/m2
12:26 20.6 °F 13.6 °F 30.20 in SW 5.0 mph 11.0 mph 74% 0.00 in 58 W/m2
12:32 20.3 °F 13.9 °F 30.20 in West 6.0 mph 8.0 mph 76% 0.00 in 79 W/m2
12:38 20.4 °F 13.7 °F 30.20 in WNW 6.0 mph 8.0 mph 75% 0.00 in 105 W/m2
12:44 20.7 °F 13.7 °F 30.20 in WSW 6.0 mph 6.0 mph 74% 0.00 in 114 W/m2
12:48 21.0 °F 13.7 °F 30.20 in WNW 5.0 mph 9.0 mph 73% 0.00 in 102 W/m2
12:54 21.1 °F 13.8 °F 30.19 in SW 6.0 mph 6.0 mph 73% 0.00 in 116 W/m2
13:00 21.3 °F 13.7 °F 30.19 in West 6.0 mph 7.0 mph 72% 0.00 in 100 W/m2
13:06 21.6 °F 13.6 °F 30.19 in WSW 6.0 mph 7.0 mph 71% 0.00 in 123 W/m2
13:10 21.5 °F 13.2 °F 30.19 in West 7.0 mph 7.0 mph 70% 0.00 in 104 W/m2
13:16 21.4 °F 13.5 °F 30.19 in WSW 8.0 mph 9.0 mph 71% 0.00 in 183 W/m2
13:28 21.5 °F 13.2 °F 30.19 in West 6.0 mph 13.0 mph 70% 0.00 in 79 W/m2
13:34 21.4 °F 12.8 °F 30.19 in WSW 5.0 mph 7.0 mph 69% 0.00 in 88 W/m2
13:36 21.4 °F 12.8 °F 30.19 in West 5.0 mph 7.0 mph 69% 0.00 in 91 W/m2
13:42 21.3 °F 12.7 °F 30.19 in SW 6.0 mph 8.0 mph 69% 0.00 in 88 W/m2
13:48 21.3 °F 12.7 °F 30.18 in SSW 7.0 mph 8.0 mph 69% 0.00 in 97 W/m2
13:54 21.2 °F 12.6 °F 30.18 in SSW 6.0 mph 6.0 mph 69% 0.00 in 98 W/m2
14:00 21.2 °F 12.6 °F 30.18 in NW 7.0 mph 7.0 mph 69% 0.00 in 116 W/m2
14:06 21.2 °F 12.6 °F 30.18 in SW 7.0 mph 11.0 mph 69% 0.00 in 146 W/m2
14:12 21.0 °F 13.1 °F 30.17 in NW 8.0 mph 8.0 mph 71% 0.00 in 130 W/m2
14:24 21.3 °F 12.7 °F 30.17 in West 7.0 mph 17.0 mph 69% 0.00 in 125 W/m2
14:36 21.4 °F 13.1 °F 30.17 in West 7.0 mph 8.0 mph 70% 0.00 in 209 W/m2
14:44 21.4 °F 13.1 °F 30.17 in SW 8.0 mph 8.0 mph 70% 0.00 in 158 W/m2
14:50 21.7 °F 13.1 °F 30.17 in West 8.0 mph 12.0 mph 69% 0.00 in 211 W/m2
14:56 21.8 °F 13.8 °F 30.17 in South 9.0 mph 19.0 mph 71% 0.00 in 251 W/m2
15:02 21.8 °F 12.9 °F 30.18 in WSW 9.0 mph 10.0 mph 68% 0.00 in 116 W/m2
15:14 21.7 °F 12.4 °F 30.18 in West 9.0 mph 10.0 mph 67% 0.00 in 120 W/m2
15:20 21.5 °F 12.2 °F 30.18 in WSW 8.0 mph 9.0 mph 67% 0.00 in 81 W/m2
15:24 21.4 °F 12.1 °F 30.18 in West 7.0 mph 10.0 mph 67% 0.00 in 113 W/m2
15:30 21.3 °F 12.0 °F 30.18 in WNW 7.0 mph 7.0 mph 67% 0.00 in 83 W/m2
15:36 21.2 °F 11.9 °F 30.19 in SSW 7.0 mph 7.0 mph 67% 0.00 in 83 W/m2
15:50 21.0 °F 11.4 °F 30.19 in SSE 6.0 mph 9.0 mph 66% 0.00 in 49 W/m2
15:56 20.8 °F 11.2 °F 30.19 in NW 7.0 mph 9.0 mph 66% 0.00 in 35 W/m2
16:02 20.3 °F 11.1 °F 30.19 in West 7.0 mph 9.0 mph 67% 0.00 in 42 W/m2
16:10 20.2 °F 11.0 °F 30.19 in WSW 7.0 mph 7.0 mph 67% 0.00 in 30 W/m2
16:16 20.0 °F 10.5 °F 30.20 in West 7.0 mph 8.0 mph 66% 0.00 in 19 W/m2
16:22 19.8 °F 10.3 °F 30.19 in SW 6.0 mph 6.0 mph 66% 0.00 in 12 W/m2
16:28 19.7 °F 10.5 °F 30.19 in West 6.0 mph 11.0 mph 67% 0.00 in 9 W/m2
16:34 19.6 °F 10.4 °F 30.19 in West 7.0 mph 9.0 mph 67% 0.00 in 7 W/m2
16:40 19.5 °F 10.3 °F 30.19 in West 8.0 mph 8.0 mph 67% 0.00 in 5 W/m2
16:46 19.3 °F 10.1 °F 30.19 in WSW 8.0 mph 12.0 mph 67% 0.00 in 0 W/m2
16:52 19.3 °F 10.1 °F 30.19 in West 7.0 mph 9.0 mph 67% 0.00 in 0 W/m2
16:58 19.2 °F 10.0 °F 30.20 in WSW 6.0 mph 9.0 mph 67% 0.00 in 0 W/m2
17:06 19.1 °F 9.9 °F 30.20 in WSW 7.0 mph 10.0 mph 67% 0.00 in 0 W/m2
17:12 19.0 °F 9.8 °F 30.20 in West 8.0 mph 8.0 mph 67% 0.00 in 0 W/m2
17:18 18.9 °F 9.7 °F 30.20 in West 7.0 mph 8.0 mph 67% 0.00 in 0 W/m2
17:20 18.9 °F 9.7 °F 30.20 in West 7.0 mph 7.0 mph 67% 0.00 in 0 W/m2
17:28 18.5 °F 9.4 °F 30.20 in WSW 8.0 mph 11.0 mph 67% 0.00 in 0 W/m2
17:34 18.4 °F 9.3 °F 30.20 in SW 7.0 mph 8.0 mph 67% 0.00 in 0 W/m2
17:40 18.4 °F 9.3 °F 30.20 in West 6.0 mph 9.0 mph 67% 0.00 in 0 W/m2
17:52 17.9 °F 8.5 °F 30.20 in WSW 8.0 mph 13.0 mph 66% 0.00 in 0 W/m2
17:58 17.8 °F 8.4 °F 30.20 in West 8.0 mph 13.0 mph 66% 0.00 in 0 W/m2
18:04 17.9 °F 8.5 °F 30.21 in WNW 6.0 mph 8.0 mph 66% 0.00 in 0 W/m2
18:10 17.9 °F 7.8 °F 30.21 in WSW 6.0 mph 6.0 mph 64% 0.00 in 0 W/m2
18:12 17.9 °F 7.8 °F 30.21 in West 6.0 mph 8.0 mph 64% 0.00 in 0 W/m2
18:18 17.8 °F 7.3 °F 30.22 in West 6.0 mph 8.0 mph 63% 0.00 in 0 W/m2
18:24 17.7 °F 7.2 °F 30.22 in WNW 5.0 mph 6.0 mph 63% 0.00 in 0 W/m2
18:30 17.4 °F 6.9 °F 30.22 in West 4.0 mph 4.0 mph 63% 0.00 in 0 W/m2
18:34 17.3 °F 6.8 °F 30.22 in NW 3.0 mph 4.0 mph 63% 0.00 in 0 W/m2
18:40 17.2 °F 6.8 °F 30.22 in West 4.0 mph 6.0 mph 63% 0.00 in 0 W/m2
18:46 17.1 °F 6.3 °F 30.22 in West 4.0 mph 10.0 mph 62% 0.00 in 0 W/m2
18:52 17.0 °F 6.2 °F 30.22 in WNW 5.0 mph 7.0 mph 62% 0.00 in 0 W/m2
18:58 16.9 °F 6.1 °F 30.22 in WSW 4.0 mph 7.0 mph 62% 0.00 in 0 W/m2
19:04 17.0 °F 5.9 °F 30.22 in WNW 4.0 mph 7.0 mph 61% 0.00 in 0 W/m2
19:12 17.2 °F 6.0 °F 30.22 in SW 5.0 mph 9.0 mph 61% 0.00 in 0 W/m2
19:18 17.2 °F 6.0 °F 30.22 in SW 5.0 mph 9.0 mph 61% 0.00 in 0 W/m2
19:24 17.2 °F 6.0 °F 30.22 in SSW 5.0 mph 11.0 mph 61% 0.00 in 0 W/m2
19:26 17.2 °F 6.0 °F 30.22 in WSW 6.0 mph 11.0 mph 61% 0.00 in 0 W/m2
19:32 17.1 °F 5.9 °F 30.22 in West 6.0 mph 6.0 mph 61% 0.00 in 0 W/m2
19:38 17.0 °F 5.9 °F 30.22 in WNW 5.0 mph 6.0 mph 61% 0.00 in 0 W/m2
19:50 17.0 °F 5.9 °F 30.21 in West 6.0 mph 9.0 mph 61% 0.00 in 0 W/m2
19:56 17.0 °F 5.9 °F 30.20 in WSW 6.0 mph 9.0 mph 61% 0.00 in 0 W/m2
20:08 17.0 °F 6.2 °F 30.20 in SW 4.0 mph 6.0 mph 62% 0.00 in 0 W/m2
20:20 16.9 °F 5.8 °F 30.20 in SW 5.0 mph 5.0 mph 61% 0.00 in 0 W/m2
20:26 16.8 °F 6.0 °F 30.20 in SW 4.0 mph 9.0 mph 62% 0.00 in 0 W/m2
20:32 16.7 °F 5.9 °F 30.20 in SW 5.0 mph 11.0 mph 62% 0.00 in 0 W/m2
20:44 16.6 °F 6.2 °F 30.19 in West 6.0 mph 6.0 mph 63% 0.00 in 0 W/m2
21:02 16.7 °F 6.3 °F 30.19 in SW 5.0 mph 11.0 mph 63% 0.00 in 0 W/m2
21:14 16.6 °F 6.2 °F 30.18 in WSW 6.0 mph 12.0 mph 63% 0.00 in 0 W/m2
21:22 16.5 °F 6.4 °F 30.18 in SSW 5.0 mph 5.0 mph 64% 0.00 in 0 W/m2
21:24 16.4 °F 6.3 °F 30.18 in SW 5.0 mph 9.0 mph 64% 0.00 in 0 W/m2
21:48 16.5 °F 6.1 °F 30.18 in SW 6.0 mph 11.0 mph 63% 0.00 in 0 W/m2
21:54 16.6 °F 6.5 °F 30.18 in West 6.0 mph 9.0 mph 64% 0.00 in 0 W/m2
22:00 16.6 °F 6.5 °F 30.18 in West 5.0 mph 6.0 mph 64% 0.00 in 0 W/m2
22:06 16.8 °F 6.4 °F 30.19 in SW 5.0 mph 6.0 mph 63% 0.00 in 0 W/m2
22:16 16.8 °F 6.4 °F 30.19 in West 5.0 mph 6.0 mph 63% 0.00 in 0 W/m2
22:22 16.9 °F 6.8 °F 30.19 in West 4.0 mph 9.0 mph 64% 0.00 in 0 W/m2
22:28 16.9 °F 6.8 °F 30.20 in WSW 4.0 mph 9.0 mph 64% 0.00 in 0 W/m2
22:40 17.0 °F 6.9 °F 30.19 in WSW 4.0 mph 6.0 mph 64% 0.00 in 0 W/m2
22:46 17.0 °F 6.9 °F 30.20 in West 4.0 mph 6.0 mph 64% 0.00 in 0 W/m2
22:50 17.1 °F 7.0 °F 30.20 in WSW 4.0 mph 5.0 mph 64% 0.00 in 0 W/m2
22:56 17.2 °F 7.1 °F 30.20 in SSW 5.0 mph 7.0 mph 64% 0.00 in 0 W/m2
23:00 17.2 °F 7.1 °F 30.20 in West 5.0 mph 6.0 mph 64% 0.00 in 0 W/m2
23:06 17.2 °F 7.1 °F 30.20 in WSW 4.0 mph 6.0 mph 64% 0.00 in 0 W/m2
23:18 17.3 °F 7.5 °F 30.20 in SW 4.0 mph 9.0 mph 65% 0.00 in 0 W/m2
23:24 17.4 °F 7.3 °F 30.20 in SW 4.0 mph 4.0 mph 64% 0.00 in 0 W/m2
23:30 17.3 °F 7.5 °F 30.20 in SSW 3.0 mph 3.0 mph 65% 0.00 in 0 W/m2
23:36 17.3 °F 7.2 °F 30.20 in WSW 4.0 mph 6.0 mph 64% 0.00 in 0 W/m2
23:42 17.3 °F 7.2 °F 30.20 in SSE 3.0 mph 6.0 mph 64% 0.00 in 0 W/m2
23:54 17.3 °F 7.2 °F 30.20 in SSE 4.0 mph 7.0 mph 64% 0.00 in 0 W/m2
Country Meadow, Clay, NY, USA
Compliments of Weather Underground - 2 mb